Time;durP1;ratioP1;P1;durP2;ratioP2;P2;SDS_P1;SDS_P2;PMS_P1;PMS_P2;Temp;Humidity;BMP_temperature;BMP_pressure;BME280_temperature;BME280_humidity;BME280_pressure;Samples;Min_cycle;Max_cycle;Signal;HPM_P1;HPM_P2
2022/01/30 00:00:32;;;;;;;11.33;4.53;;;;;;;;;;771707;179;920640;-65
2022/01/30 00:02:58;;;;;;;5.63;3.20;;;;;;;;;;771857;178;916758;-66
2022/01/30 00:05:23;;;;;;;3.50;2.83;;;;;;;;;;776114;180;917970;-66
2022/01/30 00:07:49;;;;;;;6.10;3.60;;;;;;;;;;772076;180;920242;-65
2022/01/30 00:10:15;;;;;;;6.60;3.30;;;;;;;;;;770359;180;1020367;-66
2022/01/30 00:12:48;;;;;;;6.27;3.80;;;;;;;;;;778099;178;918820;-66
2022/01/30 00:15:08;;;;;;;4.33;3.47;;;;;;;;;;770601;180;919075;-64
2022/01/30 00:17:40;;;;;;;5.57;3.50;;;;;;;;;;772997;177;919543;-65
2022/01/30 00:20:04;;;;;;;5.00;3.40;;;;;;;;;;772970;178;918400;-65
2022/01/30 00:22:43;;;;;;;5.43;3.70;;;;;;;;;;776080;177;918910;-66
2022/01/30 00:24:59;;;;;;;4.33;2.80;;;;;;;;;;771928;177;919396;-65
2022/01/30 00:27:27;;;;;;;4.13;2.60;;;;;;;;;;774443;180;919034;-65
2022/01/30 00:29:44;;;;;;;4.00;2.87;;;;;;;;;;774969;179;923207;-64
2022/01/30 00:32:10;;;;;;;4.10;2.87;;;;;;;;;;768996;179;919795;-65
2022/01/30 00:34:36;;;;;;;4.13;2.90;;;;;;;;;;772025;180;920826;-65
2022/01/30 00:37:03;;;;;;;5.20;3.70;;;;;;;;;;778384;180;925636;-65
2022/01/30 00:39:27;;;;;;;4.90;2.83;;;;;;;;;;775354;180;921812;-65
2022/01/30 00:41:53;;;;;;;3.23;2.43;;;;;;;;;;769655;180;919385;-64
2022/01/30 00:44:19;;;;;;;4.70;2.60;;;;;;;;;;770512;179;917628;-65
2022/01/30 00:46:46;;;;;;;5.70;2.67;;;;;;;;;;772938;180;918586;-65
2022/01/30 00:49:11;;;;;;;3.77;2.00;;;;;;;;;;772416;178;916257;-64
2022/01/30 00:51:37;;;;;;;3.47;2.50;;;;;;;;;;771896;179;915582;-65
2022/01/30 00:54:03;;;;;;;5.87;3.07;;;;;;;;;;774043;181;915832;-65
2022/01/30 00:56:28;;;;;;;3.20;2.53;;;;;;;;;;762183;181;918965;-65
2022/01/30 00:58:54;;;;;;;3.30;2.63;;;;;;;;;;772061;180;919378;-65
2022/01/30 01:01:20;;;;;;;3.93;2.70;;;;;;;;;;778627;177;918753;-65
2022/01/30 01:03:46;;;;;;;3.43;2.17;;;;;;;;;;764510;180;1039813;-65
2022/01/30 01:06:12;;;;;;;3.30;2.17;;;;;;;;;;767178;180;919173;-65
2022/01/30 01:08:49;;;;;;;4.57;2.43;;;;;;;;;;780296;180;918357;-66
2022/01/30 01:14:14;;;;;;;3.63;2.80;;;;;;;;;;778776;179;918821;-63
2022/01/30 01:24:07;;;;;;;3.90;2.20;;;;;;;;;;765835;180;919398;-64
2022/01/30 01:26:33;;;;;;;2.40;1.63;;;;;;;;;;775365;181;918252;-64
2022/01/30 01:28:59;;;;;;;3.53;2.10;;;;;;;;;;772309;180;919248;-64
2022/01/30 01:31:25;;;;;;;6.70;2.33;;;;;;;;;;765794;181;918689;-64
2022/01/30 01:34:10;;;;;;;3.00;1.93;;;;;;;;;;778028;181;918759;-64
2022/01/30 01:36:23;;;;;;;2.67;1.60;;;;;;;;;;778086;179;919314;-64
2022/01/30 01:38:48;;;;;;;6.33;2.17;;;;;;;;;;775278;179;918986;-65
2022/01/30 01:41:18;;;;;;;4.00;2.33;;;;;;;;;;775250;177;918472;-67
2022/01/30 01:43:40;;;;;;;2.10;1.30;;;;;;;;;;780357;180;918480;-66
2022/01/30 01:46:14;;;;;;;5.77;1.83;;;;;;;;;;775653;180;919331;-66
2022/01/30 01:48:33;;;;;;;4.37;2.10;;;;;;;;;;774474;177;919460;-66
2022/01/30 01:51:06;;;;;;;2.00;1.15;;;;;;;;;;777761;180;918479;-65
2022/01/30 01:53:24;;;;;;;2.50;1.70;;;;;;;;;;773173;177;919031;-66
2022/01/30 01:55:49;;;;;;;1.93;1.10;;;;;;;;;;766418;180;915276;-67
2022/01/30 01:58:15;;;;;;;3.63;1.30;;;;;;;;;;765592;177;915492;-67
2022/01/30 02:00:41;;;;;;;3.70;1.10;;;;;;;;;;771995;181;917753;-67
2022/01/30 02:03:07;;;;;;;2.67;1.55;;;;;;;;;;772031;180;921753;-67
2022/01/30 02:05:35;;;;;;;2.37;1.33;;;;;;;;;;768185;180;917961;-67
2022/01/30 02:10:57;;;;;;;5.50;1.10;;;;;;;;;;771839;181;918755;-66
2022/01/30 02:13:40;;;;;;;4.27;1.40;;;;;;;;;;770667;177;918124;-66
2022/01/30 02:23:57;;;;;;;3.40;1.23;;;;;;;;;;766010;179;919324;-64
2022/01/30 02:26:02;;;;;;;2.13;1.37;;;;;;;;;;761514;182;918993;-68
2022/01/30 02:28:27;;;;;;;3.17;1.23;;;;;;;;;;768714;178;919183;-66
2022/01/30 02:31:11;;;;;;;1.83;0.90;;;;;;;;;;774610;179;919015;-67
2022/01/30 02:33:32;;;;;;;4.90;1.10;;;;;;;;;;773016;178;919172;-68
2022/01/30 02:35:58;;;;;;;2.33;1.13;;;;;;;;;;778513;180;919050;-66
2022/01/30 02:38:24;;;;;;;2.60;1.10;;;;;;;;;;768386;180;919225;-67
2022/01/30 02:40:52;;;;;;;3.28;1.30;;;;;;;;;;773913;178;919787;-66
2022/01/30 02:43:20;;;;;;;2.47;0.90;;;;;;;;;;776666;181;919476;-65
2022/01/30 02:45:49;;;;;;;4.70;1.30;;;;;;;;;;773560;180;1021012;-65
2022/01/30 02:51:19;;;;;;;2.17;1.27;;;;;;;;;;768158;180;919379;-64
2022/01/30 02:53:31;;;;;;;2.80;1.23;;;;;;;;;;765928;181;919715;-66
2022/01/30 02:55:52;;;;;;;2.57;1.17;;;;;;;;;;778533;180;918321;-66
2022/01/30 02:58:18;;;;;;;3.10;1.30;;;;;;;;;;774390;180;919413;-66
2022/01/30 03:00:44;;;;;;;3.70;1.93;;;;;;;;;;774914;180;919728;-66
2022/01/30 03:03:10;;;;;;;4.20;1.60;;;;;;;;;;771463;178;919344;-66
2022/01/30 03:05:35;;;;;;;2.33;1.20;;;;;;;;;;779838;180;918708;-66
2022/01/30 03:08:01;;;;;;;3.67;1.57;;;;;;;;;;772612;180;918788;-66
2022/01/30 03:10:27;;;;;;;8.57;1.63;;;;;;;;;;774468;180;918410;-66
2022/01/30 03:12:53;;;;;;;3.77;1.80;;;;;;;;;;776684;180;918664;-66
2022/01/30 03:15:19;;;;;;;2.53;1.40;;;;;;;;;;772420;177;918791;-66
2022/01/30 03:17:45;;;;;;;2.23;1.30;;;;;;;;;;769291;179;919679;-66
2022/01/30 03:20:11;;;;;;;2.60;1.37;;;;;;;;;;779286;180;918240;-66
2022/01/30 03:22:37;;;;;;;3.63;1.47;;;;;;;;;;770442;181;918746;-65
2022/01/30 03:25:03;;;;;;;2.40;1.20;;;;;;;;;;771114;181;949777;-65
2022/01/30 03:27:29;;;;;;;2.83;1.40;;;;;;;;;;773777;181;918989;-64
2022/01/30 03:30:03;;;;;;;5.53;1.50;;;;;;;;;;773274;180;919339;-66
2022/01/30 03:32:20;;;;;;;2.93;1.63;;;;;;;;;;768930;179;918993;-65
2022/01/30 03:34:46;;;;;;;4.12;1.35;;;;;;;;;;771951;180;918708;-66
2022/01/30 03:37:12;;;;;;;2.43;1.50;;;;;;;;;;770927;181;1047899;-65
2022/01/30 03:39:38;;;;;;;6.60;2.03;;;;;;;;;;772463;181;919228;-64
2022/01/30 03:42:04;;;;;;;2.30;1.40;;;;;;;;;;773578;178;919875;-65
2022/01/30 03:44:30;;;;;;;5.77;1.90;;;;;;;;;;777405;180;918555;-65
2022/01/30 03:46:56;;;;;;;3.50;1.90;;;;;;;;;;751979;181;919700;-65
2022/01/30 03:49:21;;;;;;;6.00;1.60;;;;;;;;;;775662;181;918914;-66
2022/01/30 03:51:47;;;;;;;3.03;1.67;;;;;;;;;;775576;180;919368;-64
2022/01/30 03:54:13;;;;;;;2.93;1.83;;;;;;;;;;771728;178;947784;-66
2022/01/30 03:56:39;;;;;;;3.33;1.90;;;;;;;;;;770056;180;919079;-64
2022/01/30 03:59:05;;;;;;;2.90;1.33;;;;;;;;;;765531;179;1267073;-65
2022/01/30 04:01:31;;;;;;;3.58;1.70;;;;;;;;;;779255;177;915770;-65
2022/01/30 04:03:58;;;;;;;2.47;1.57;;;;;;;;;;770973;177;912804;-66
2022/01/30 04:06:22;;;;;;;3.13;1.73;;;;;;;;;;773692;179;912572;-66
2022/01/30 04:08:48;;;;;;;6.10;2.10;;;;;;;;;;763504;182;919400;-64
2022/01/30 04:11:14;;;;;;;2.87;1.70;;;;;;;;;;767783;180;944174;-65
2022/01/30 04:13:40;;;;;;;3.17;1.80;;;;;;;;;;775688;178;919564;-65
2022/01/30 04:16:06;;;;;;;4.40;1.87;;;;;;;;;;778040;180;918675;-66
2022/01/30 04:18:32;;;;;;;8.37;2.10;;;;;;;;;;763379;180;918783;-67
2022/01/30 04:20:58;;;;;;;9.90;1.87;;;;;;;;;;768311;181;919266;-67
2022/01/30 04:23:24;;;;;;;5.30;1.80;;;;;;;;;;772942;180;918179;-67
2022/01/30 04:25:50;;;;;;;3.00;1.93;;;;;;;;;;779754;180;918672;-66
2022/01/30 04:28:16;;;;;;;2.70;1.73;;;;;;;;;;767041;180;915262;-66
2022/01/30 04:30:42;;;;;;;3.50;1.90;;;;;;;;;;773936;180;915292;-65
2022/01/30 04:33:08;;;;;;;9.23;1.73;;;;;;;;;;777812;180;915087;-65
2022/01/30 04:35:35;;;;;;;3.57;1.50;;;;;;;;;;772660;178;915318;-65
2022/01/30 04:38:05;;;;;;;2.10;1.20;;;;;;;;;;772969;181;926485;-66
2022/01/30 04:40:57;;;;;;;7.40;3.00;;;;;;;;;;778521;178;916124;-66
2022/01/30 04:53:21;;;;;;;2.20;1.23;;;;;;;;;;774324;178;916584;-66
2022/01/30 04:58:29;;;;;;;3.53;1.73;;;;;;;;;;768525;181;920168;-66
2022/01/30 05:00:57;;;;;;;4.17;1.90;;;;;;;;;;769153;180;919370;-67
2022/01/30 05:03:39;;;;;;;5.70;1.03;;;;;;;;;;771581;180;919292;-67
2022/01/30 05:06:05;;;;;;;4.05;1.40;;;;;;;;;;769065;180;918012;-67
2022/01/30 05:08:27;;;;;;;1.90;0.80;;;;;;;;;;772928;180;919943;-65
2022/01/30 05:10:54;;;;;;;6.90;1.70;;;;;;;;;;770481;180;921500;-67
2022/01/30 05:13:22;;;;;;;4.77;1.87;;;;;;;;;;770684;177;921377;-68
2022/01/30 05:15:45;;;;;;;2.50;1.10;;;;;;;;;;766292;180;1019656;-67
2022/01/30 05:18:11;;;;;;;4.10;1.30;;;;;;;;;;762399;181;918809;-67
2022/01/30 05:20:37;;;;;;;2.15;1.15;;;;;;;;;;777084;180;921533;-67
2022/01/30 05:23:03;;;;;;;2.97;1.43;;;;;;;;;;772683;177;918367;-67
2022/01/30 05:25:29;;;;;;;3.73;1.53;;;;;;;;;;780482;180;916036;-67
2022/01/30 05:27:55;;;;;;;1.90;1.10;;;;;;;;;;770967;180;915956;-66
2022/01/30 05:30:21;;;;;;;2.40;1.50;;;;;;;;;;767218;178;915776;-67
2022/01/30 05:32:47;;;;;;;3.40;1.30;;;;;;;;;;773182;180;915549;-67
2022/01/30 05:35:14;;;;;;;2.65;1.23;;;;;;;;;;773649;181;918716;-68
2022/01/30 05:37:42;;;;;;;3.63;1.50;;;;;;;;;;768888;180;919657;-68
2022/01/30 05:40:06;;;;;;;3.33;1.10;;;;;;;;;;772042;180;918591;-68
2022/01/30 05:42:33;;;;;;;4.90;3.40;;;;;;;;;;777825;179;917958;-69
2022/01/30 05:45:11;;;;;;;1.83;0.90;;;;;;;;;;774002;180;1021103;-68
2022/01/30 05:47:31;;;;;;;2.83;1.40;;;;;;;;;;769219;180;921558;-68
2022/01/30 05:49:51;;;;;;;3.10;1.60;;;;;;;;;;775619;180;919303;-67
2022/01/30 05:52:17;;;;;;;4.30;1.70;;;;;;;;;;762024;180;918600;-67
2022/01/30 05:54:43;;;;;;;2.53;1.30;;;;;;;;;;770460;181;917402;-67
2022/01/30 05:57:09;;;;;;;4.20;1.83;;;;;;;;;;772344;177;920782;-66
2022/01/30 05:59:34;;;;;;;4.30;1.60;;;;;;;;;;765940;181;918185;-67
2022/01/30 06:02:00;;;;;;;4.83;1.80;;;;;;;;;;770223;180;918230;-66
2022/01/30 06:04:26;;;;;;;4.23;1.60;;;;;;;;;;773841;178;915640;-67
2022/01/30 06:06:54;;;;;;;7.53;2.90;;;;;;;;;;779240;177;916047;-66
2022/01/30 06:09:19;;;;;;;5.13;2.20;;;;;;;;;;777111;180;915164;-67
2022/01/30 06:11:44;;;;;;;11.60;2.25;;;;;;;;;;758142;183;1015037;-67
2022/01/30 06:14:10;;;;;;;4.73;1.60;;;;;;;;;;771672;180;919955;-67
2022/01/30 06:16:36;;;;;;;7.80;3.60;;;;;;;;;;772454;177;919605;-66
2022/01/30 06:19:02;;;;;;;3.93;1.83;;;;;;;;;;773895;180;919250;-66
2022/01/30 06:21:28;;;;;;;7.53;2.03;;;;;;;;;;772845;180;1025506;-65
2022/01/30 06:23:54;;;;;;;2.60;1.30;;;;;;;;;;771902;180;918503;-66
2022/01/30 06:26:19;;;;;;;4.87;1.63;;;;;;;;;;775009;177;919200;-66
2022/01/30 06:28:45;;;;;;;4.43;2.00;;;;;;;;;;776137;181;918381;-65
2022/01/30 06:31:11;;;;;;;8.10;2.27;;;;;;;;;;776784;179;919073;-66
2022/01/30 06:33:37;;;;;;;5.83;2.10;;;;;;;;;;766656;181;918377;-67
2022/01/30 06:36:03;;;;;;;5.72;2.67;;;;;;;;;;774800;178;918809;-66
2022/01/30 06:38:29;;;;;;;5.60;1.80;;;;;;;;;;779867;177;918477;-66
2022/01/30 06:40:54;;;;;;;2.77;1.40;;;;;;;;;;772223;180;918811;-67
2022/01/30 06:43:20;;;;;;;6.37;1.70;;;;;;;;;;767545;181;919201;-66
2022/01/30 06:45:48;;;;;;;4.20;1.27;;;;;;;;;;779295;180;918571;-66
2022/01/30 06:48:12;;;;;;;7.65;1.77;;;;;;;;;;773072;180;921748;-67
2022/01/30 06:50:38;;;;;;;10.80;2.63;;;;;;;;;;771638;180;920424;-66
2022/01/30 06:53:04;;;;;;;1.87;1.07;;;;;;;;;;771326;180;919440;-67
2022/01/30 06:55:30;;;;;;;5.77;2.00;;;;;;;;;;777563;179;918225;-67
2022/01/30 06:57:55;;;;;;;9.80;1.70;;;;;;;;;;762812;182;918959;-66
2022/01/30 07:00:21;;;;;;;5.62;1.90;;;;;;;;;;772150;178;919007;-67
2022/01/30 07:02:47;;;;;;;8.03;1.63;;;;;;;;;;779891;180;919117;-66
2022/01/30 07:05:13;;;;;;;3.43;1.30;;;;;;;;;;760927;182;919150;-66
2022/01/30 07:07:39;;;;;;;4.30;2.13;;;;;;;;;;766885;180;918545;-66
2022/01/30 07:10:06;;;;;;;4.63;1.60;;;;;;;;;;779276;178;918568;-66
2022/01/30 07:12:31;;;;;;;5.25;1.62;;;;;;;;;;767940;180;919326;-66
2022/01/30 07:14:57;;;;;;;7.00;1.93;;;;;;;;;;771711;181;920193;-66
2022/01/30 07:17:23;;;;;;;8.50;1.90;;;;;;;;;;772538;178;1038025;-64
2022/01/30 07:19:49;;;;;;;5.60;1.50;;;;;;;;;;778119;181;918844;-66
2022/01/30 07:22:15;;;;;;;7.47;1.80;;;;;;;;;;771801;180;922032;-66
2022/01/30 07:24:40;;;;;;;3.53;1.33;;;;;;;;;;771099;178;920968;-66
2022/01/30 07:27:06;;;;;;;7.20;1.93;;;;;;;;;;778933;180;918227;-64
2022/01/30 07:29:32;;;;;;;2.87;1.40;;;;;;;;;;773278;180;919261;-68
2022/01/30 07:31:58;;;;;;;2.07;1.07;;;;;;;;;;772070;177;918368;-67
2022/01/30 07:34:24;;;;;;;9.93;1.77;;;;;;;;;;778620;179;920529;-67
2022/01/30 07:36:50;;;;;;;9.63;2.53;;;;;;;;;;774870;180;919442;-67
2022/01/30 07:39:16;;;;;;;6.40;1.70;;;;;;;;;;772752;178;918900;-66
2022/01/30 07:41:42;;;;;;;8.50;2.45;;;;;;;;;;775883;179;919203;-64
2022/01/30 07:44:08;;;;;;;7.97;2.90;;;;;;;;;;778362;177;919401;-66
2022/01/30 07:46:34;;;;;;;8.50;1.77;;;;;;;;;;763862;180;921818;-66
2022/01/30 07:49:00;;;;;;;8.13;2.33;;;;;;;;;;768382;180;919453;-67
2022/01/30 07:51:26;;;;;;;9.33;2.00;;;;;;;;;;776229;180;918478;-67
2022/01/30 07:53:51;;;;;;;4.87;1.73;;;;;;;;;;761795;181;920440;-68
2022/01/30 07:56:17;;;;;;;7.07;2.17;;;;;;;;;;775546;180;917497;-67
2022/01/30 07:58:43;;;;;;;7.47;2.17;;;;;;;;;;776854;180;923920;-67
2022/01/30 08:01:09;;;;;;;4.50;2.20;;;;;;;;;;774219;177;917859;-66
2022/01/30 08:03:35;;;;;;;8.73;2.63;;;;;;;;;;774926;177;916834;-66
2022/01/30 08:06:01;;;;;;;6.73;2.73;;;;;;;;;;778135;179;910949;-66
2022/01/30 08:08:26;;;;;;;5.40;1.90;;;;;;;;;;772949;180;915819;-67
2022/01/30 08:10:52;;;;;;;7.00;2.20;;;;;;;;;;774065;180;855144;-68
2022/01/30 08:13:18;;;;;;;4.93;1.77;;;;;;;;;;772529;180;922696;-66
2022/01/30 08:15:45;;;;;;;7.10;2.80;;;;;;;;;;773503;180;919599;-67
2022/01/30 08:18:10;;;;;;;6.40;1.70;;;;;;;;;;763034;179;918830;-65
2022/01/30 08:20:36;;;;;;;6.17;1.90;;;;;;;;;;775557;180;634244;-67
2022/01/30 08:23:08;;;;;;;11.60;2.40;;;;;;;;;;777756;180;921169;-66
2022/01/30 08:25:28;;;;;;;6.90;1.90;;;;;;;;;;773509;177;920248;-65
2022/01/30 08:27:54;;;;;;;4.67;1.83;;;;;;;;;;774426;179;620870;-66
2022/01/30 08:30:20;;;;;;;5.80;1.50;;;;;;;;;;778876;180;920326;-66
2022/01/30 08:32:46;;;;;;;3.73;1.63;;;;;;;;;;776131;180;918821;-64
2022/01/30 08:35:12;;;;;;;8.50;2.13;;;;;;;;;;770053;179;919645;-66
2022/01/30 08:37:38;;;;;;;6.53;1.73;;;;;;;;;;773360;177;616859;-65
2022/01/30 08:40:04;;;;;;;5.00;1.50;;;;;;;;;;781556;177;632813;-67
2022/01/30 08:42:29;;;;;;;6.50;1.93;;;;;;;;;;773707;180;919865;-66
2022/01/30 08:44:55;;;;;;;8.73;2.37;;;;;;;;;;775552;180;644008;-66
2022/01/30 08:47:21;;;;;;;8.00;2.20;;;;;;;;;;782158;180;622572;-66
2022/01/30 08:49:47;;;;;;;3.40;1.63;;;;;;;;;;778583;180;617968;-66
2022/01/30 08:52:16;;;;;;;4.97;2.03;;;;;;;;;;777713;179;636914;-66
2022/01/30 08:54:39;;;;;;;8.87;1.80;;;;;;;;;;780247;180;614713;-66
2022/01/30 08:57:05;;;;;;;5.27;1.27;;;;;;;;;;776068;177;620323;-66
2022/01/30 08:59:30;;;;;;;7.83;1.80;;;;;;;;;;775797;177;620894;-66
2022/01/30 09:01:56;;;;;;;2.47;1.67;;;;;;;;;;778377;180;625949;-66
2022/01/30 09:04:22;;;;;;;6.37;3.00;;;;;;;;;;772603;180;917188;-66
2022/01/30 09:06:48;;;;;;;5.93;1.53;;;;;;;;;;771776;177;915447;-66
2022/01/30 09:09:14;;;;;;;6.60;2.20;;;;;;;;;;775855;179;637214;-65
2022/01/30 09:11:40;;;;;;;6.53;2.03;;;;;;;;;;783529;180;613711;-66
2022/01/30 09:14:07;;;;;;;12.73;2.90;;;;;;;;;;777701;180;628463;-66
2022/01/30 09:16:32;;;;;;;4.87;1.83;;;;;;;;;;776427;180;917687;-66
2022/01/30 09:18:58;;;;;;;11.43;1.87;;;;;;;;;;780981;179;816303;-64
2022/01/30 09:21:23;;;;;;;8.70;2.30;;;;;;;;;;773666;180;916938;-65
2022/01/30 09:23:49;;;;;;;7.20;2.67;;;;;;;;;;773991;180;922051;-66
2022/01/30 09:26:15;;;;;;;6.37;2.30;;;;;;;;;;778292;180;918476;-66
2022/01/30 09:28:41;;;;;;;19.03;1.70;;;;;;;;;;769028;181;918383;-65
2022/01/30 09:31:07;;;;;;;7.17;1.90;;;;;;;;;;772670;180;919163;-66
2022/01/30 09:33:33;;;;;;;3.03;1.47;;;;;;;;;;768385;177;905309;-66
2022/01/30 09:35:59;;;;;;;4.00;1.50;;;;;;;;;;767974;178;919522;-66
2022/01/30 09:38:24;;;;;;;15.10;2.63;;;;;;;;;;772176;177;919712;-66
2022/01/30 09:40:51;;;;;;;4.70;2.03;;;;;;;;;;763330;181;917997;-65
2022/01/30 09:43:18;;;;;;;9.63;1.52;;;;;;;;;;772911;180;918846;-65
2022/01/30 09:45:44;;;;;;;11.80;2.30;;;;;;;;;;758508;181;924761;-65
2022/01/30 09:48:09;;;;;;;8.17;2.30;;;;;;;;;;773259;181;919747;-66
2022/01/30 09:50:35;;;;;;;9.07;2.27;;;;;;;;;;779223;181;915168;-66
2022/01/30 09:53:01;;;;;;;5.32;1.60;;;;;;;;;;769299;180;913265;-66
2022/01/30 09:55:27;;;;;;;9.00;2.30;;;;;;;;;;769908;178;921243;-66
2022/01/30 09:57:53;;;;;;;5.60;1.80;;;;;;;;;;775926;178;952174;-65
2022/01/30 10:00:19;;;;;;;5.53;1.92;;;;;;;;;;780625;177;918083;-64
2022/01/30 10:02:45;;;;;;;11.50;1.87;;;;;;;;;;772846;178;912706;-66
2022/01/30 10:05:11;;;;;;;10.48;2.28;;;;;;;;;;776219;178;633964;-66
2022/01/30 10:07:38;;;;;;;10.90;2.70;;;;;;;;;;778924;179;911490;-65
2022/01/30 10:10:08;;;;;;;10.63;2.23;;;;;;;;;;775891;179;917856;-64
2022/01/30 10:12:34;;;;;;;2.00;1.20;;;;;;;;;;776028;178;915536;-65
2022/01/30 10:15:00;;;;;;;5.67;1.90;;;;;;;;;;764110;182;916721;-66
2022/01/30 10:17:28;;;;;;;9.13;3.93;;;;;;;;;;771895;181;914117;-66
2022/01/30 10:20:02;;;;;;;19.80;13.77;;;;;;;;;;775104;177;915759;-66
2022/01/30 10:22:27;;;;;;;10.50;3.17;;;;;;;;;;775636;180;915921;-66
2022/01/30 10:24:53;;;;;;;4.40;2.20;;;;;;;;;;771700;177;914953;-66
2022/01/30 10:27:21;;;;;;;5.70;2.83;;;;;;;;;;775515;181;915382;-66
2022/01/30 10:29:47;;;;;;;6.80;1.50;;;;;;;;;;771192;180;915467;-67
2022/01/30 10:32:12;;;;;;;4.40;1.60;;;;;;;;;;771168;180;816889;-66
2022/01/30 10:34:38;;;;;;;3.50;1.70;;;;;;;;;;781479;180;624671;-66
2022/01/30 10:37:10;;;;;;;2.30;1.20;;;;;;;;;;779720;180;657651;-65
2022/01/30 10:39:36;;;;;;;2.50;1.30;;;;;;;;;;773721;181;914855;-66
2022/01/30 10:42:03;;;;;;;2.10;1.20;;;;;;;;;;775234;180;919153;-66
2022/01/30 10:44:29;;;;;;;3.03;0.97;;;;;;;;;;783360;178;632151;-66
2022/01/30 10:46:54;;;;;;;6.70;2.00;;;;;;;;;;775939;178;918347;-66
2022/01/30 10:49:20;;;;;;;9.10;2.33;;;;;;;;;;769356;180;918455;-65
2022/01/30 10:51:51;;;;;;;3.30;1.47;;;;;;;;;;771062;180;628760;-65
2022/01/30 10:54:17;;;;;;;9.73;1.27;;;;;;;;;;774493;180;919098;-65
2022/01/30 10:56:43;;;;;;;7.23;1.70;;;;;;;;;;770664;178;928219;-65
2022/01/30 10:59:09;;;;;;;3.33;2.00;;;;;;;;;;762395;181;919996;-65
2022/01/30 11:01:35;;;;;;;5.83;2.10;;;;;;;;;;764087;183;920248;-66
2022/01/30 11:04:01;;;;;;;7.75;1.60;;;;;;;;;;765576;180;918213;-65
2022/01/30 11:06:27;;;;;;;4.90;1.90;;;;;;;;;;776350;178;917723;-65
2022/01/30 11:08:54;;;;;;;13.60;2.63;;;;;;;;;;776907;181;619469;-65
2022/01/30 11:11:33;;;;;;;9.17;2.47;;;;;;;;;;758957;181;633504;-64
2022/01/30 11:14:13;;;;;;;7.10;2.20;;;;;;;;;;778055;177;918721;-65
2022/01/30 11:18:57;;;;;;;6.17;1.73;;;;;;;;;;779865;180;927110;-66
2022/01/30 11:21:23;;;;;;;5.90;2.33;;;;;;;;;;772264;180;919295;-65
2022/01/30 11:23:49;;;;;;;3.87;1.77;;;;;;;;;;773224;180;920076;-65
2022/01/30 11:26:15;;;;;;;6.47;2.00;;;;;;;;;;774218;177;919142;-66
2022/01/30 11:28:40;;;;;;;6.63;3.60;;;;;;;;;;780653;180;614805;-66
2022/01/30 11:31:06;;;;;;;5.80;2.97;;;;;;;;;;776769;178;911036;-66
2022/01/30 11:33:32;;;;;;;7.80;2.70;;;;;;;;;;772566;180;919677;-66
2022/01/30 11:35:58;;;;;;;8.50;2.40;;;;;;;;;;778934;178;919223;-65
2022/01/30 11:38:24;;;;;;;8.03;2.53;;;;;;;;;;774411;179;921413;-66
2022/01/30 11:40:55;;;;;;;15.33;3.97;;;;;;;;;;776715;177;920003;-64
2022/01/30 11:43:24;;;;;;;4.23;1.90;;;;;;;;;;763632;183;919285;-65
2022/01/30 11:45:47;;;;;;;17.50;3.62;;;;;;;;;;774835;180;918686;-65
2022/01/30 11:48:13;;;;;;;6.20;1.63;;;;;;;;;;764512;180;916546;-65
2022/01/30 11:50:39;;;;;;;11.23;2.87;;;;;;;;;;772928;180;919514;-65
2022/01/30 11:53:05;;;;;;;6.90;2.23;;;;;;;;;;779605;177;915891;-65
2022/01/30 11:55:50;;;;;;;9.43;3.17;;;;;;;;;;772630;177;917476;-65
2022/01/30 11:58:22;;;;;;;7.67;3.03;;;;;;;;;;772430;179;919478;-64
2022/01/30 12:00:49;;;;;;;9.93;2.60;;;;;;;;;;769154;180;920011;-65
2022/01/30 12:03:19;;;;;;;10.37;3.07;;;;;;;;;;766959;181;919553;-64
2022/01/30 12:05:45;;;;;;;6.57;2.22;;;;;;;;;;778318;180;919486;-64
2022/01/30 12:08:11;;;;;;;9.13;2.30;;;;;;;;;;765301;181;627124;-64
2022/01/30 12:10:37;;;;;;;4.75;2.45;;;;;;;;;;777511;180;919214;-65
2022/01/30 12:13:03;;;;;;;7.47;2.22;;;;;;;;;;780002;181;919328;-64
2022/01/30 12:15:35;;;;;;;11.70;2.60;;;;;;;;;;773673;177;918771;-65
2022/01/30 12:18:01;;;;;;;18.57;2.43;;;;;;;;;;772559;178;918406;-62
2022/01/30 12:20:26;;;;;;;7.40;1.73;;;;;;;;;;779016;180;815705;-65
2022/01/30 12:22:52;;;;;;;13.33;3.87;;;;;;;;;;780668;180;918859;-65
2022/01/30 12:25:19;;;;;;;13.67;6.93;;;;;;;;;;773539;180;920209;-65
2022/01/30 12:27:46;;;;;;;20.90;9.30;;;;;;;;;;773833;179;919165;-65
2022/01/30 12:30:18;;;;;;;15.23;5.63;;;;;;;;;;771090;180;920086;-64
2022/01/30 12:32:44;;;;;;;11.70;3.03;;;;;;;;;;779260;180;918956;-64
2022/01/30 12:35:10;;;;;;;7.80;2.87;;;;;;;;;;771371;177;1021944;-64
2022/01/30 12:37:36;;;;;;;10.27;2.97;;;;;;;;;;768203;180;1129919;-64
2022/01/30 12:40:17;;;;;;;6.90;2.40;;;;;;;;;;773038;177;919731;-64
2022/01/30 12:42:44;;;;;;;6.20;1.93;;;;;;;;;;769724;181;919142;-64
2022/01/30 12:45:09;;;;;;;5.07;2.33;;;;;;;;;;771343;178;919484;-64
2022/01/30 12:47:35;;;;;;;11.60;2.80;;;;;;;;;;771310;180;1021908;-66
2022/01/30 12:50:04;;;;;;;3.92;1.62;;;;;;;;;;774639;180;1021615;-64
2022/01/30 12:52:34;;;;;;;5.47;1.93;;;;;;;;;;773175;179;919891;-65
2022/01/30 12:54:55;;;;;;;6.40;2.60;;;;;;;;;;768064;178;917919;-65
2022/01/30 12:57:19;;;;;;;9.17;2.73;;;;;;;;;;766517;179;918790;-64
2022/01/30 12:59:51;;;;;;;12.43;3.13;;;;;;;;;;777065;180;920704;-66
2022/01/30 13:02:17;;;;;;;10.50;2.93;;;;;;;;;;772356;177;881259;-65
2022/01/30 13:04:43;;;;;;;8.47;2.37;;;;;;;;;;758046;181;918546;-64
2022/01/30 13:07:08;;;;;;;15.63;3.67;;;;;;;;;;774769;180;919371;-66
2022/01/30 13:09:34;;;;;;;7.47;3.10;;;;;;;;;;769992;180;916715;-65
2022/01/30 13:12:00;;;;;;;23.90;3.63;;;;;;;;;;773327;180;916122;-64
2022/01/30 13:14:31;;;;;;;11.43;3.97;;;;;;;;;;772393;181;813317;-65
2022/01/30 13:16:57;;;;;;;13.87;3.40;;;;;;;;;;777322;180;915366;-64
2022/01/30 13:19:27;;;;;;;17.57;6.30;;;;;;;;;;773634;180;915514;-63
2022/01/30 13:21:53;;;;;;;9.80;3.95;;;;;;;;;;774305;180;919961;-64
2022/01/30 13:24:19;;;;;;;16.53;2.87;;;;;;;;;;774346;180;636992;-64
2022/01/30 13:26:45;;;;;;;9.60;4.03;;;;;;;;;;775330;180;632021;-65
2022/01/30 13:29:13;;;;;;;14.63;4.40;;;;;;;;;;774083;178;947406;-65
2022/01/30 13:31:39;;;;;;;7.70;2.30;;;;;;;;;;773140;180;918521;-64
2022/01/30 13:34:05;;;;;;;22.50;4.27;;;;;;;;;;779284;179;921614;-65
2022/01/30 13:36:31;;;;;;;12.37;2.60;;;;;;;;;;773190;178;910895;-65
2022/01/30 13:38:57;;;;;;;27.30;3.60;;;;;;;;;;772292;180;918016;-65
2022/01/30 13:41:26;;;;;;;8.73;2.57;;;;;;;;;;778802;178;876717;-65
2022/01/30 13:43:57;;;;;;;7.87;3.13;;;;;;;;;;759230;181;918413;-64
2022/01/30 13:48:52;;;;;;;5.57;1.80;;;;;;;;;;770843;177;918997;-64
2022/01/30 13:51:19;;;;;;;11.30;3.40;;;;;;;;;;773580;178;628050;-65
2022/01/30 13:53:45;;;;;;;7.77;2.80;;;;;;;;;;768621;181;929299;-63
2022/01/30 13:56:12;;;;;;;6.10;2.67;;;;;;;;;;770412;179;919433;-63
2022/01/30 13:58:47;;;;;;;12.40;3.03;;;;;;;;;;769895;178;918390;-63
2022/01/30 14:01:11;;;;;;;11.67;3.80;;;;;;;;;;777977;180;921433;-62
2022/01/30 14:03:37;;;;;;;10.73;3.43;;;;;;;;;;770513;177;918675;-64
2022/01/30 14:06:03;;;;;;;9.27;3.37;;;;;;;;;;770066;180;919301;-65
2022/01/30 14:08:28;;;;;;;13.07;3.00;;;;;;;;;;773119;178;917097;-66
2022/01/30 14:11:00;;;;;;;15.83;3.40;;;;;;;;;;779851;180;919287;-64
2022/01/30 14:13:29;;;;;;;20.53;3.53;;;;;;;;;;772137;180;1020952;-64
2022/01/30 14:15:58;;;;;;;4.20;1.90;;;;;;;;;;774190;178;918628;-64
2022/01/30 14:18:26;;;;;;;17.13;3.30;;;;;;;;;;768089;179;918633;-64
2022/01/30 14:20:51;;;;;;;9.87;3.50;;;;;;;;;;755960;183;629195;-63
2022/01/30 14:23:16;;;;;;;12.43;3.47;;;;;;;;;;758346;182;632733;-64
2022/01/30 14:25:41;;;;;;;15.43;3.30;;;;;;;;;;776395;180;623482;-65
2022/01/30 14:28:13;;;;;;;10.97;3.03;;;;;;;;;;778584;179;625795;-62
2022/01/30 14:30:39;;;;;;;12.20;2.47;;;;;;;;;;772224;179;918440;-64
2022/01/30 14:33:05;;;;;;;10.63;3.90;;;;;;;;;;775540;180;919020;-64
2022/01/30 14:35:36;;;;;;;10.40;1.97;;;;;;;;;;771738;177;919045;-64
2022/01/30 14:38:00;;;;;;;7.13;2.27;;;;;;;;;;767916;181;919291;-66
2022/01/30 14:40:26;;;;;;;12.27;3.03;;;;;;;;;;774139;180;633305;-64
2022/01/30 14:42:52;;;;;;;10.83;2.50;;;;;;;;;;775620;180;624306;-64
2022/01/30 14:45:18;;;;;;;10.63;3.90;;;;;;;;;;780865;178;633234;-65
2022/01/30 14:47:44;;;;;;;13.27;4.40;;;;;;;;;;773703;180;1021498;-64
2022/01/30 14:50:09;;;;;;;17.27;5.23;;;;;;;;;;774230;179;918477;-65
2022/01/30 14:52:37;;;;;;;11.83;3.70;;;;;;;;;;779078;180;912286;-65
2022/01/30 14:55:01;;;;;;;8.40;3.13;;;;;;;;;;769351;180;1020732;-65
2022/01/30 14:57:27;;;;;;;12.93;3.70;;;;;;;;;;771653;180;919183;-65
2022/01/30 14:59:54;;;;;;;12.20;3.37;;;;;;;;;;772372;180;918951;-63
2022/01/30 15:02:19;;;;;;;10.33;3.93;;;;;;;;;;774446;180;922909;-64